sensor_id;sensor_type;location;lat;lon;timestamp;pressure;altitude;pressure_sealevel;temperature;humidity
12759;BME280;20944;47.048;15.390;2023-08-07T00:00:31;96840.03;;;14.84;89.15
12759;BME280;20944;47.048;15.390;2023-08-07T00:03:01;96814.25;;;14.73;92.18
12759;BME280;20944;47.048;15.390;2023-08-07T00:05:29;96835.84;;;14.80;91.47
12759;BME280;20944;47.048;15.390;2023-08-07T00:07:58;96827.69;;;14.69;91.58
12759;BME280;20944;47.048;15.390;2023-08-07T00:10:26;96832.03;;;14.70;89.77
12759;BME280;20944;47.048;15.390;2023-08-07T00:12:54;96831.78;;;14.74;91.97
12759;BME280;20944;47.048;15.390;2023-08-07T00:15:22;96829.03;;;14.76;93.86
12759;BME280;20944;47.048;15.390;2023-08-07T00:17:51;96833.91;;;14.83;94.19
12759;BME280;20944;47.048;15.390;2023-08-07T00:20:21;96838.28;;;14.83;96.01
12759;BME280;20944;47.048;15.390;2023-08-07T00:22:49;96837.50;;;14.67;95.88
12759;BME280;20944;47.048;15.390;2023-08-07T00:25:17;96839.72;;;14.59;97.31
12759;BME280;20944;47.048;15.390;2023-08-07T00:27:46;96847.53;;;14.60;98.07
12759;BME280;20944;47.048;15.390;2023-08-07T00:30:14;96851.03;;;14.61;98.24
12759;BME280;20944;47.048;15.390;2023-08-07T00:32:43;96856.09;;;14.64;96.79
12759;BME280;20944;47.048;15.390;2023-08-07T00:35:11;96645.97;;;13.42;95.42
12759;BME280;20944;47.048;15.390;2023-08-07T00:37:41;96849.81;;;14.50;94.56
12759;BME280;20944;47.048;15.390;2023-08-07T00:40:10;96788.09;;;14.07;95.91
12759;BME280;20944;47.048;15.390;2023-08-07T00:42:38;96839.59;;;14.44;95.16
12759;BME280;20944;47.048;15.390;2023-08-07T00:45:07;96837.16;;;14.41;94.55
12759;BME280;20944;47.048;15.390;2023-08-07T00:47:35;96835.25;;;14.43;94.95
12759;BME280;20944;47.048;15.390;2023-08-07T00:50:05;96839.69;;;14.43;95.69
12759;BME280;20944;47.048;15.390;2023-08-07T00:52:35;96833.25;;;14.48;93.97
12759;BME280;20944;47.048;15.390;2023-08-07T00:55:05;96834.84;;;14.51;94.22
12759;BME280;20944;47.048;15.390;2023-08-07T00:57:34;96844.13;;;14.58;93.52
12759;BME280;20944;47.048;15.390;2023-08-07T01:00:02;96848.34;;;14.45;94.96
12759;BME280;20944;47.048;15.390;2023-08-07T01:02:31;96849.38;;;14.42;95.73
12759;BME280;20944;47.048;15.390;2023-08-07T01:04:59;96851.06;;;14.43;96.59
12759;BME280;20944;47.048;15.390;2023-08-07T01:07:28;96837.16;;;14.41;95.89
12759;BME280;20944;47.048;15.390;2023-08-07T01:09:56;96847.19;;;14.35;96.79
12759;BME280;20944;47.048;15.390;2023-08-07T01:12:34;96839.44;;;14.16;99.50
12759;BME280;20944;47.048;15.390;2023-08-07T01:15:09;96844.94;;;14.11;96.94
12759;BME280;20944;47.048;15.390;2023-08-07T01:17:42;96836.34;;;14.08;95.17
12759;BME280;20944;47.048;15.390;2023-08-07T01:20:11;96840.00;;;14.05;94.78
12759;BME280;20944;47.048;15.390;2023-08-07T01:22:41;96839.78;;;14.10;96.84
12759;BME280;20944;47.048;15.390;2023-08-07T01:25:09;96841.72;;;14.06;96.62
12759;BME280;20944;47.048;15.390;2023-08-07T01:27:42;96826.66;;;13.92;92.94
12759;BME280;20944;47.048;15.390;2023-08-07T01:30:17;96807.53;;;13.73;95.05
12759;BME280;20944;47.048;15.390;2023-08-07T01:32:52;96807.19;;;13.79;96.88
12759;BME280;20944;47.048;15.390;2023-08-07T01:35:23;96831.09;;;13.92;95.19
12759;BME280;20944;47.048;15.390;2023-08-07T01:37:56;96808.56;;;13.86;95.14
12759;BME280;20944;47.048;15.390;2023-08-07T01:40:25;96818.06;;;13.73;97.76
12759;BME280;20944;47.048;15.390;2023-08-07T01:42:55;96830.19;;;13.75;98.65
12759;BME280;20944;47.048;15.390;2023-08-07T01:45:23;96831.69;;;13.64;96.67
12759;BME280;20944;47.048;15.390;2023-08-07T01:47:52;96840.09;;;13.55;96.57
12759;BME280;20944;47.048;15.390;2023-08-07T01:50:21;96840.09;;;13.55;97.06
12759;BME280;20944;47.048;15.390;2023-08-07T01:52:50;96805.91;;;13.20;96.88
12759;BME280;20944;47.048;15.390;2023-08-07T01:55:20;96849.56;;;13.41;97.59
12759;BME280;20944;47.048;15.390;2023-08-07T01:57:49;96849.09;;;13.33;98.84
12759;BME280;20944;47.048;15.390;2023-08-07T02:00:18;96850.25;;;13.28;100.00
12759;BME280;20944;47.048;15.390;2023-08-07T02:02:46;96849.25;;;13.30;100.00
12759;BME280;20944;47.048;15.390;2023-08-07T02:05:15;96828.03;;;13.16;100.00
12759;BME280;20944;47.048;15.390;2023-08-07T02:07:43;96859.53;;;13.35;100.00
12759;BME280;20944;47.048;15.390;2023-08-07T02:10:12;96856.16;;;13.33;100.00
12759;BME280;20944;47.048;15.390;2023-08-07T02:12:41;96855.44;;;13.29;100.00
12759;BME280;20944;47.048;15.390;2023-08-07T02:15:10;96860.00;;;13.26;100.00
12759;BME280;20944;47.048;15.390;2023-08-07T02:17:38;96855.09;;;13.18;100.00
12759;BME280;20944;47.048;15.390;2023-08-07T02:20:09;96855.25;;;13.15;100.00
12759;BME280;20944;47.048;15.390;2023-08-07T02:22:38;96860.03;;;13.07;100.00
12759;BME280;20944;47.048;15.390;2023-08-07T02:25:06;96848.22;;;12.98;100.00
12759;BME280;20944;47.048;15.390;2023-08-07T02:27:35;96860.75;;;13.10;100.00
12759;BME280;20944;47.048;15.390;2023-08-07T02:30:05;96847.13;;;13.19;100.00
12759;BME280;20944;47.048;15.390;2023-08-07T02:32:34;96837.63;;;13.17;100.00
12759;BME280;20944;47.048;15.390;2023-08-07T02:35:03;96852.63;;;13.15;100.00
12759;BME280;20944;47.048;15.390;2023-08-07T02:37:31;96856.13;;;13.15;100.00
12759;BME280;20944;47.048;15.390;2023-08-07T02:39:59;96853.16;;;13.04;100.00
12759;BME280;20944;47.048;15.390;2023-08-07T02:42:27;96836.59;;;12.85;100.00
12759;BME280;20944;47.048;15.390;2023-08-07T02:44:56;96850.13;;;12.94;100.00
12759;BME280;20944;47.048;15.390;2023-08-07T02:47:25;96854.84;;;12.88;100.00
12759;BME280;20944;47.048;15.390;2023-08-07T02:49:53;96850.38;;;12.90;100.00
12759;BME280;20944;47.048;15.390;2023-08-07T02:52:22;96848.81;;;12.86;100.00
12759;BME280;20944;47.048;15.390;2023-08-07T02:54:50;96853.94;;;12.89;100.00
12759;BME280;20944;47.048;15.390;2023-08-07T02:57:18;96849.53;;;12.89;100.00
12759;BME280;20944;47.048;15.390;2023-08-07T02:59:46;96845.56;;;12.81;100.00
12759;BME280;20944;47.048;15.390;2023-08-07T03:02:14;96831.69;;;12.60;100.00
12759;BME280;20944;47.048;15.390;2023-08-07T03:04:44;96839.88;;;12.54;100.00
12759;BME280;20944;47.048;15.390;2023-08-07T03:07:12;96838.09;;;12.54;100.00
12759;BME280;20944;47.048;15.390;2023-08-07T03:09:40;96854.09;;;12.50;100.00
12759;BME280;20944;47.048;15.390;2023-08-07T03:12:09;96851.53;;;12.48;100.00
12759;BME280;20944;47.048;15.390;2023-08-07T03:14:37;96859.59;;;12.45;100.00
12759;BME280;20944;47.048;15.390;2023-08-07T03:17:05;96859.50;;;12.47;100.00
12759;BME280;20944;47.048;15.390;2023-08-07T03:19:34;96858.13;;;12.57;100.00
12759;BME280;20944;47.048;15.390;2023-08-07T03:22:04;96864.75;;;12.47;100.00
12759;BME280;20944;47.048;15.390;2023-08-07T03:24:32;96866.75;;;12.41;100.00
12759;BME280;20944;47.048;15.390;2023-08-07T03:27:00;96866.91;;;12.38;100.00
12759;BME280;20944;47.048;15.390;2023-08-07T03:29:28;96876.63;;;12.36;100.00
12759;BME280;20944;47.048;15.390;2023-08-07T03:31:56;96875.97;;;12.31;100.00
12759;BME280;20944;47.048;15.390;2023-08-07T03:34:25;96877.53;;;12.35;100.00
12759;BME280;20944;47.048;15.390;2023-08-07T03:36:53;96813.97;;;11.91;100.00
12759;BME280;20944;47.048;15.390;2023-08-07T03:39:24;96862.44;;;12.22;100.00
12759;BME280;20944;47.048;15.390;2023-08-07T03:41:52;96887.28;;;12.33;100.00
12759;BME280;20944;47.048;15.390;2023-08-07T03:44:20;96877.06;;;12.27;100.00
12759;BME280;20944;47.048;15.390;2023-08-07T03:46:48;96878.19;;;12.40;100.00
12759;BME280;20944;47.048;15.390;2023-08-07T03:49:17;96883.50;;;12.58;100.00
12759;BME280;20944;47.048;15.390;2023-08-07T03:51:45;96881.09;;;12.53;100.00
12759;BME280;20944;47.048;15.390;2023-08-07T03:54:14;96887.91;;;12.57;100.00
12759;BME280;20944;47.048;15.390;2023-08-07T03:56:43;96895.53;;;12.62;100.00
12759;BME280;20944;47.048;15.390;2023-08-07T03:59:13;96887.75;;;12.60;100.00
12759;BME280;20944;47.048;15.390;2023-08-07T04:01:41;96898.19;;;12.62;100.00
12759;BME280;20944;47.048;15.390;2023-08-07T04:04:10;96896.56;;;12.59;100.00
12759;BME280;20944;47.048;15.390;2023-08-07T04:06:38;96880.88;;;12.58;100.00
12759;BME280;20944;47.048;15.390;2023-08-07T04:09:06;96898.59;;;12.72;100.00
12759;BME280;20944;47.048;15.390;2023-08-07T04:11:37;96909.81;;;12.75;100.00
12759;BME280;20944;47.048;15.390;2023-08-07T04:14:06;96894.97;;;12.74;100.00
12759;BME280;20944;47.048;15.390;2023-08-07T04:16:34;96899.00;;;12.81;100.00
12759;BME280;20944;47.048;15.390;2023-08-07T04:19:05;96907.13;;;12.77;100.00
12759;BME280;20944;47.048;15.390;2023-08-07T04:21:34;96903.19;;;12.85;100.00
12759;BME280;20944;47.048;15.390;2023-08-07T04:24:02;96902.34;;;12.85;100.00
12759;BME280;20944;47.048;15.390;2023-08-07T04:26:37;96903.19;;;12.85;100.00
12759;BME280;20944;47.048;15.390;2023-08-07T04:29:06;96897.28;;;12.80;100.00
12759;BME280;20944;47.048;15.390;2023-08-07T04:31:35;96855.34;;;12.60;100.00
12759;BME280;20944;47.048;15.390;2023-08-07T04:34:03;96912.09;;;13.00;100.00
12759;BME280;20944;47.048;15.390;2023-08-07T04:36:32;96856.63;;;12.70;100.00
12759;BME280;20944;47.048;15.390;2023-08-07T04:39:02;96906.78;;;13.02;100.00
12759;BME280;20944;47.048;15.390;2023-08-07T04:41:30;96915.34;;;13.05;100.00
12759;BME280;20944;47.048;15.390;2023-08-07T04:43:58;96899.50;;;12.89;100.00
12759;BME280;20944;47.048;15.390;2023-08-07T04:46:28;96919.75;;;13.05;100.00
12759;BME280;20944;47.048;15.390;2023-08-07T04:48:56;96915.75;;;12.98;100.00
12759;BME280;20944;47.048;15.390;2023-08-07T04:51:25;96909.75;;;12.94;100.00
12759;BME280;20944;47.048;15.390;2023-08-07T04:53:57;96910.34;;;12.82;100.00
12759;BME280;20944;47.048;15.390;2023-08-07T04:56:25;96914.34;;;12.90;100.00
12759;BME280;20944;47.048;15.390;2023-08-07T04:58:53;96921.34;;;13.09;100.00
12759;BME280;20944;47.048;15.390;2023-08-07T05:01:22;96919.97;;;13.36;100.00
12759;BME280;20944;47.048;15.390;2023-08-07T05:03:51;96925.16;;;13.55;100.00
12759;BME280;20944;47.048;15.390;2023-08-07T05:06:20;96901.63;;;13.52;100.00
12759;BME280;20944;47.048;15.390;2023-08-07T05:08:48;96927.47;;;13.79;100.00
12759;BME280;20944;47.048;15.390;2023-08-07T05:11:16;96936.66;;;13.87;100.00
12759;BME280;20944;47.048;15.390;2023-08-07T05:13:44;96924.81;;;13.96;100.00
12759;BME280;20944;47.048;15.390;2023-08-07T05:16:12;96928.41;;;14.11;100.00
12759;BME280;20944;47.048;15.390;2023-08-07T05:18:41;96904.41;;;13.99;100.00
12759;BME280;20944;47.048;15.390;2023-08-07T05:21:10;96941.06;;;14.20;100.00
12759;BME280;20944;47.048;15.390;2023-08-07T05:23:38;96939.84;;;14.27;100.00
12759;BME280;20944;47.048;15.390;2023-08-07T05:26:06;96929.50;;;14.40;100.00
12759;BME280;20944;47.048;15.390;2023-08-07T05:28:35;96942.03;;;14.52;100.00
12759;BME280;20944;47.048;15.390;2023-08-07T05:31:03;96936.00;;;14.66;100.00
12759;BME280;20944;47.048;15.390;2023-08-07T05:33:31;96943.38;;;14.75;100.00
12759;BME280;20944;47.048;15.390;2023-08-07T05:35:59;96937.69;;;14.82;100.00
12759;BME280;20944;47.048;15.390;2023-08-07T05:38:29;96947.22;;;14.85;100.00
12759;BME280;20944;47.048;15.390;2023-08-07T05:40:57;96949.63;;;14.90;100.00
12759;BME280;20944;47.048;15.390;2023-08-07T05:43:25;96950.38;;;14.92;100.00
12759;BME280;20944;47.048;15.390;2023-08-07T05:45:53;96948.34;;;14.97;100.00
12759;BME280;20944;47.048;15.390;2023-08-07T05:48:21;96952.41;;;15.02;100.00
12759;BME280;20944;47.048;15.390;2023-08-07T05:50:51;96951.47;;;15.03;100.00
12759;BME280;20944;47.048;15.390;2023-08-07T05:53:19;96962.69;;;15.07;100.00
12759;BME280;20944;47.048;15.390;2023-08-07T05:55:49;96968.47;;;15.14;100.00
12759;BME280;20944;47.048;15.390;2023-08-07T05:58:17;96965.06;;;15.11;98.26
12759;BME280;20944;47.048;15.390;2023-08-07T06:00:45;96961.84;;;15.06;97.97
12759;BME280;20944;47.048;15.390;2023-08-07T06:03:14;96979.03;;;15.14;97.92
12759;BME280;20944;47.048;15.390;2023-08-07T06:05:42;96973.69;;;15.15;97.55
12759;BME280;20944;47.048;15.390;2023-08-07T06:08:10;96960.84;;;15.09;97.91
12759;BME280;20944;47.048;15.390;2023-08-07T06:10:38;96973.34;;;15.21;98.32
12759;BME280;20944;47.048;15.390;2023-08-07T06:13:08;96972.69;;;15.32;98.88
12759;BME280;20944;47.048;15.390;2023-08-07T06:15:45;96952.72;;;15.28;100.00
12759;BME280;20944;47.048;15.390;2023-08-07T06:18:14;96980.53;;;15.33;100.00
12759;BME280;20944;47.048;15.390;2023-08-07T06:20:42;96974.38;;;15.33;99.29
12759;BME280;20944;47.048;15.390;2023-08-07T06:23:10;96968.81;;;15.23;75.76
12759;BME280;20944;47.048;15.390;2023-08-07T06:25:39;96985.34;;;15.57;76.22
12759;BME280;20944;47.048;15.390;2023-08-07T06:28:08;96986.81;;;15.62;72.25
12759;BME280;20944;47.048;15.390;2023-08-07T06:30:36;96914.94;;;15.42;69.79
12759;BME280;20944;47.048;15.390;2023-08-07T06:33:05;96994.34;;;15.99;69.55
12759;BME280;20944;47.048;15.390;2023-08-07T06:35:37;96985.00;;;16.07;64.50
12759;BME280;20944;47.048;15.390;2023-08-07T06:38:06;96977.28;;;16.18;67.18
12759;BME280;20944;47.048;15.390;2023-08-07T06:40:35;96984.28;;;16.34;66.68
12759;BME280;20944;47.048;15.390;2023-08-07T06:43:03;96986.56;;;16.54;78.06
12759;BME280;20944;47.048;15.390;2023-08-07T06:45:33;96990.06;;;16.55;81.19
12759;BME280;20944;47.048;15.390;2023-08-07T06:48:01;96999.13;;;16.51;82.07
12759;BME280;20944;47.048;15.390;2023-08-07T06:50:29;96996.38;;;16.52;83.00
12759;BME280;20944;47.048;15.390;2023-08-07T06:52:58;96998.63;;;16.58;83.29
12759;BME280;20944;47.048;15.390;2023-08-07T06:55:26;96993.63;;;16.68;81.87
12759;BME280;20944;47.048;15.390;2023-08-07T06:57:54;97000.28;;;16.75;81.79
12759;BME280;20944;47.048;15.390;2023-08-07T07:00:22;96995.66;;;16.79;85.00
12759;BME280;20944;47.048;15.390;2023-08-07T07:02:52;96988.25;;;16.84;83.07
12759;BME280;20944;47.048;15.390;2023-08-07T07:05:21;96979.47;;;16.83;82.28
12759;BME280;20944;47.048;15.390;2023-08-07T07:07:49;96993.16;;;16.90;81.21
12759;BME280;20944;47.048;15.390;2023-08-07T07:10:17;96973.28;;;16.97;81.26
12759;BME280;20944;47.048;15.390;2023-08-07T07:12:45;96994.22;;;17.14;77.24
12759;BME280;20944;47.048;15.390;2023-08-07T07:15:14;96986.28;;;17.14;76.93
12759;BME280;20944;47.048;15.390;2023-08-07T07:17:43;97004.03;;;17.26;77.16
12759;BME280;20944;47.048;15.390;2023-08-07T07:20:13;96998.25;;;17.34;77.63
12759;BME280;20944;47.048;15.390;2023-08-07T07:22:41;96957.50;;;17.10;75.00
12759;BME280;20944;47.048;15.390;2023-08-07T07:25:09;97002.25;;;17.54;74.43
12759;BME280;20944;47.048;15.390;2023-08-07T07:27:39;96999.72;;;17.79;75.28
12759;BME280;20944;47.048;15.390;2023-08-07T07:30:08;96994.63;;;18.02;75.04
12759;BME280;20944;47.048;15.390;2023-08-07T07:32:36;96990.41;;;18.12;72.33
12759;BME280;20944;47.048;15.390;2023-08-07T07:35:05;97004.00;;;18.33;70.85
12759;BME280;20944;47.048;15.390;2023-08-07T07:37:35;96981.50;;;18.39;69.80
12759;BME280;20944;47.048;15.390;2023-08-07T07:40:04;97001.03;;;18.50;65.80
12759;BME280;20944;47.048;15.390;2023-08-07T07:42:32;97017.28;;;18.71;62.93
12759;BME280;20944;47.048;15.390;2023-08-07T07:45:01;97016.97;;;18.76;64.15
12759;BME280;20944;47.048;15.390;2023-08-07T07:47:29;96991.25;;;18.76;65.48
12759;BME280;20944;47.048;15.390;2023-08-07T07:50:05;97016.72;;;18.92;66.14
12759;BME280;20944;47.048;15.390;2023-08-07T07:52:36;96805.44;;;17.65;65.77
12759;BME280;20944;47.048;15.390;2023-08-07T07:55:05;97029.75;;;19.07;64.28
12759;BME280;20944;47.048;15.390;2023-08-07T07:57:35;97018.69;;;19.13;65.28
12759;BME280;20944;47.048;15.390;2023-08-07T08:00:05;97016.16;;;19.12;67.09
12759;BME280;20944;47.048;15.390;2023-08-07T08:02:37;97014.66;;;19.08;68.87
12759;BME280;20944;47.048;15.390;2023-08-07T08:05:09;97004.03;;;19.08;65.84
12759;BME280;20944;47.048;15.390;2023-08-07T08:07:40;97029.16;;;19.28;65.92
12759;BME280;20944;47.048;15.390;2023-08-07T08:10:09;97042.97;;;19.33;65.33
12759;BME280;20944;47.048;15.390;2023-08-07T08:12:37;97047.72;;;19.40;64.56
12759;BME280;20944;47.048;15.390;2023-08-07T08:15:07;97034.09;;;19.45;63.68
12759;BME280;20944;47.048;15.390;2023-08-07T08:17:35;97045.25;;;19.50;62.09
12759;BME280;20944;47.048;15.390;2023-08-07T08:20:05;97051.28;;;19.65;61.93
12759;BME280;20944;47.048;15.390;2023-08-07T08:22:33;97049.06;;;19.83;60.32
12759;BME280;20944;47.048;15.390;2023-08-07T08:25:03;97049.69;;;19.86;56.90
12759;BME280;20944;47.048;15.390;2023-08-07T08:27:33;97047.31;;;19.94;56.53
12759;BME280;20944;47.048;15.390;2023-08-07T08:30:02;97049.31;;;20.15;57.32
12759;BME280;20944;47.048;15.390;2023-08-07T08:32:30;97044.25;;;20.23;53.58
12759;BME280;20944;47.048;15.390;2023-08-07T08:34:58;97032.44;;;20.38;53.43
12759;BME280;20944;47.048;15.390;2023-08-07T08:37:26;97057.09;;;20.76;56.61
12759;BME280;20944;47.048;15.390;2023-08-07T08:39:56;97052.38;;;20.90;56.11
12759;BME280;20944;47.048;15.390;2023-08-07T08:42:26;97047.63;;;21.16;53.85
12759;BME280;20944;47.048;15.390;2023-08-07T08:44:55;97056.72;;;21.47;54.53
12759;BME280;20944;47.048;15.390;2023-08-07T08:47:26;97050.19;;;21.84;51.78
12759;BME280;20944;47.048;15.390;2023-08-07T08:50:00;97029.25;;;22.00;48.98
12759;BME280;20944;47.048;15.390;2023-08-07T08:52:31;97044.16;;;22.34;49.21
12759;BME280;20944;47.048;15.390;2023-08-07T08:54:59;97063.25;;;22.30;46.17
12759;BME280;20944;47.048;15.390;2023-08-07T08:57:30;96999.38;;;22.17;45.66
12759;BME280;20944;47.048;15.390;2023-08-07T09:00:01;97046.97;;;22.33;43.48
12759;BME280;20944;47.048;15.390;2023-08-07T09:02:32;97056.50;;;22.26;42.44
12759;BME280;20944;47.048;15.390;2023-08-07T09:05:00;97064.28;;;22.18;39.48
12759;BME280;20944;47.048;15.390;2023-08-07T09:07:28;97057.53;;;22.14;42.19
12759;BME280;20944;47.048;15.390;2023-08-07T09:09:57;97055.56;;;22.16;41.64
12759;BME280;20944;47.048;15.390;2023-08-07T09:12:26;97054.34;;;22.20;39.44
12759;BME280;20944;47.048;15.390;2023-08-07T09:14:58;97045.19;;;21.90;38.58
12759;BME280;20944;47.048;15.390;2023-08-07T09:17:31;97058.41;;;21.92;41.84
12759;BME280;20944;47.048;15.390;2023-08-07T09:20:01;97055.31;;;21.75;39.68
12759;BME280;20944;47.048;15.390;2023-08-07T09:22:31;97072.25;;;21.86;39.02
12759;BME280;20944;47.048;15.390;2023-08-07T09:24:59;97041.84;;;21.77;41.86
12759;BME280;20944;47.048;15.390;2023-08-07T09:27:27;97053.00;;;21.82;39.06
12759;BME280;20944;47.048;15.390;2023-08-07T09:29:57;97067.06;;;21.84;40.64
12759;BME280;20944;47.048;15.390;2023-08-07T09:32:26;97061.69;;;21.95;40.26
12759;BME280;20944;47.048;15.390;2023-08-07T09:34:55;97061.88;;;22.15;41.69
12759;BME280;20944;47.048;15.390;2023-08-07T09:37:23;97069.31;;;22.32;41.33
12759;BME280;20944;47.048;15.390;2023-08-07T09:39:51;97065.53;;;22.34;39.09
12759;BME280;20944;47.048;15.390;2023-08-07T09:42:20;97062.47;;;22.39;39.30
12759;BME280;20944;47.048;15.390;2023-08-07T09:44:48;97084.13;;;22.25;38.59
12759;BME280;20944;47.048;15.390;2023-08-07T09:47:18;97068.47;;;21.56;36.79
12759;BME280;20944;47.048;15.390;2023-08-07T09:49:48;97066.66;;;21.45;37.46
12759;BME280;20944;47.048;15.390;2023-08-07T09:52:16;97077.31;;;21.57;38.20
12759;BME280;20944;47.048;15.390;2023-08-07T09:54:44;97079.50;;;21.63;38.28
12759;BME280;20944;47.048;15.390;2023-08-07T09:57:13;97085.41;;;21.66;38.87
12759;BME280;20944;47.048;15.390;2023-08-07T09:59:41;97097.41;;;21.61;39.36
12759;BME280;20944;47.048;15.390;2023-08-07T10:02:10;97096.84;;;21.46;37.80
12759;BME280;20944;47.048;15.390;2023-08-07T10:04:40;97097.19;;;21.41;40.45
12759;BME280;20944;47.048;15.390;2023-08-07T10:07:10;97098.53;;;21.36;39.98
12759;BME280;20944;47.048;15.390;2023-08-07T10:09:39;97046.44;;;21.09;41.25
12759;BME280;20944;47.048;15.390;2023-08-07T10:12:08;97107.63;;;21.33;38.80
12759;BME280;20944;47.048;15.390;2023-08-07T10:14:37;97108.84;;;21.29;40.13
12759;BME280;20944;47.048;15.390;2023-08-07T10:17:07;97100.22;;;21.37;40.93
12759;BME280;20944;47.048;15.390;2023-08-07T10:19:35;97103.38;;;21.42;40.55
12759;BME280;20944;47.048;15.390;2023-08-07T10:22:07;97116.72;;;21.42;39.89
12759;BME280;20944;47.048;15.390;2023-08-07T10:24:40;97112.97;;;21.44;38.50
12759;BME280;20944;47.048;15.390;2023-08-07T10:27:11;97100.97;;;21.39;38.09
12759;BME280;20944;47.048;15.390;2023-08-07T10:29:40;97126.75;;;21.49;39.01
12759;BME280;20944;47.048;15.390;2023-08-07T10:32:10;97119.84;;;21.58;38.63
12759;BME280;20944;47.048;15.390;2023-08-07T10:34:38;97111.97;;;21.57;39.11
12759;BME280;20944;47.048;15.390;2023-08-07T10:37:08;97101.91;;;21.49;38.08
12759;BME280;20944;47.048;15.390;2023-08-07T10:40:03;97126.72;;;21.72;37.69
12759;BME280;20944;47.048;15.390;2023-08-07T10:42:50;97121.88;;;21.77;38.30
12759;BME280;20944;47.048;15.390;2023-08-07T10:45:19;97121.53;;;21.70;37.35
12759;BME280;20944;47.048;15.390;2023-08-07T10:48:13;97123.50;;;21.57;38.73
12759;BME280;20944;47.048;15.390;2023-08-07T10:50:50;97121.31;;;21.28;38.47
12759;BME280;20944;47.048;15.390;2023-08-07T10:53:21;97090.75;;;20.99;37.90
12759;BME280;20944;47.048;15.390;2023-08-07T10:55:56;97143.22;;;21.21;38.99
12759;BME280;20944;47.048;15.390;2023-08-07T10:58:28;97139.94;;;21.06;39.90
12759;BME280;20944;47.048;15.390;2023-08-07T11:01:17;97096.28;;;20.73;38.79
12759;BME280;20944;47.048;15.390;2023-08-07T11:03:48;97087.59;;;20.71;39.11
12759;BME280;20944;47.048;15.390;2023-08-07T11:06:17;97151.69;;;21.04;40.23
12759;BME280;20944;47.048;15.390;2023-08-07T11:08:48;97147.31;;;21.02;39.94
12759;BME280;20944;47.048;15.390;2023-08-07T11:11:16;97160.16;;;21.09;40.04
12759;BME280;20944;47.048;15.390;2023-08-07T11:13:44;97165.84;;;21.04;38.94
12759;BME280;20944;47.048;15.390;2023-08-07T11:16:13;97163.28;;;20.91;39.62
12759;BME280;20944;47.048;15.390;2023-08-07T11:18:42;97171.19;;;20.58;38.25
12759;BME280;20944;47.048;15.390;2023-08-07T11:21:11;97167.44;;;20.60;38.88
12759;BME280;20944;47.048;15.390;2023-08-07T11:23:40;97166.75;;;20.69;39.92
12759;BME280;20944;47.048;15.390;2023-08-07T11:26:10;97164.09;;;20.69;39.43
12759;BME280;20944;47.048;15.390;2023-08-07T11:28:38;97166.16;;;20.77;40.49
12759;BME280;20944;47.048;15.390;2023-08-07T11:31:06;97156.81;;;20.71;38.82
12759;BME280;20944;47.048;15.390;2023-08-07T11:33:36;97153.47;;;20.81;40.45
12759;BME280;20944;47.048;15.390;2023-08-07T11:36:10;97176.38;;;20.94;40.69
12759;BME280;20944;47.048;15.390;2023-08-07T11:38:39;97181.81;;;20.93;41.90
12759;BME280;20944;47.048;15.390;2023-08-07T11:41:12;97182.47;;;21.08;41.91
12759;BME280;20944;47.048;15.390;2023-08-07T11:43:41;97189.34;;;21.10;41.96
12759;BME280;20944;47.048;15.390;2023-08-07T11:46:11;97185.50;;;21.14;40.19
12759;BME280;20944;47.048;15.390;2023-08-07T11:48:41;97177.88;;;21.21;40.70
12759;BME280;20944;47.048;15.390;2023-08-07T11:51:09;97173.84;;;21.15;41.61
12759;BME280;20944;47.048;15.390;2023-08-07T11:53:39;97183.31;;;21.19;39.81
12759;BME280;20944;47.048;15.390;2023-08-07T11:56:09;97157.59;;;20.96;39.14
12759;BME280;20944;47.048;15.390;2023-08-07T11:58:40;97192.63;;;21.02;40.45
12759;BME280;20944;47.048;15.390;2023-08-07T12:01:09;97200.34;;;21.06;40.37
12759;BME280;20944;47.048;15.390;2023-08-07T12:03:42;97198.66;;;21.05;41.13
12759;BME280;20944;47.048;15.390;2023-08-07T12:06:10;97206.81;;;21.14;42.21
12759;BME280;20944;47.048;15.390;2023-08-07T12:08:40;97200.16;;;21.20;43.71
12759;BME280;20944;47.048;15.390;2023-08-07T12:11:09;97188.16;;;21.14;41.53
12759;BME280;20944;47.048;15.390;2023-08-07T12:13:40;97210.75;;;21.33;40.29
12759;BME280;20944;47.048;15.390;2023-08-07T12:16:09;97207.97;;;21.34;41.71
12759;BME280;20944;47.048;15.390;2023-08-07T12:18:43;97135.78;;;20.91;42.25
12759;BME280;20944;47.048;15.390;2023-08-07T12:21:14;97213.00;;;21.15;40.46
12759;BME280;20944;47.048;15.390;2023-08-07T12:23:44;97216.25;;;21.07;40.70
12759;BME280;20944;47.048;15.390;2023-08-07T12:26:14;97167.44;;;20.60;39.57
12759;BME280;20944;47.048;15.390;2023-08-07T12:28:44;97213.78;;;20.93;40.94
12759;BME280;20944;47.048;15.390;2023-08-07T12:31:12;97206.28;;;20.98;41.60
12759;BME280;20944;47.048;15.390;2023-08-07T12:33:41;97204.72;;;20.95;41.59
12759;BME280;20944;47.048;15.390;2023-08-07T12:36:09;97205.44;;;20.97;41.56
12759;BME280;20944;47.048;15.390;2023-08-07T12:38:40;97229.91;;;21.02;41.91
12759;BME280;20944;47.048;15.390;2023-08-07T12:41:08;97198.50;;;20.84;41.62
12759;BME280;20944;47.048;15.390;2023-08-07T12:43:40;97212.84;;;21.05;41.06
12759;BME280;20944;47.048;15.390;2023-08-07T12:46:10;97216.47;;;21.04;40.88
12759;BME280;20944;47.048;15.390;2023-08-07T12:48:41;97227.50;;;20.99;41.44
12759;BME280;20944;47.048;15.390;2023-08-07T12:51:09;97203.72;;;20.85;40.83
12759;BME280;20944;47.048;15.390;2023-08-07T12:53:37;97222.72;;;20.92;41.96
12759;BME280;20944;47.048;15.390;2023-08-07T12:56:05;97212.06;;;20.92;40.36
12759;BME280;20944;47.048;15.390;2023-08-07T12:58:34;97221.16;;;20.89;39.52